Darstellungsparameter: Aktuell verwendete Einstellungen:
Skalierung der Graphiken ... ?
xyx+y,   Skalierungsfaktor:      Skalierung: Modus: x, Faktor: 1
Darstellungszeitraum ... ?
Vom - - bis: - -   Zeitraum: 30.09.2016 - 30.09.2016
Min/Max/Avg-Anzeige ... ?
Zeige MMA aktuell
Zeige MMA Monat
Zeige MMA alles
Zeige --A aktuell
Zeige --A Monat
Zeige --A alles
Keine MMA-Anzeige
MMA:
Keine MMA-Graphiken
MMA-Basis: 30.09.2016 - 30.09.2016
Quicknavigation für Darstellung... ?
Tage:      1T, 2T, 3T, 5T -1T -2T -3T -5T +1T +2T +3T +5T
Wochen: 1W, 2W, 3W -1W -2W -3W +1W +2W +3W
Monate: 1M, 3M, 6M -1M -3M -6M +1M +3M +6M
Jahre:    1J, 3J, 5J, 10J -1J -3J -5J -10J +1J +3J +5J +10J
Nutze für die Darstellung ... ?
Originaldaten oder Mittelwerte auf ...
Stundenbasis Tagesbasis Wochenbasis
Monatsbasis Jahresbasis      Datenbasis: Original-Daten
Darstellen als:
Statistik (Auto) Statistik J:M      Darstellung:
Zur Graphik,    zurück zur Übersicht aller Sensoren.
 
Tabellarische Datenbersicht: ?
 
Sensor: Nr:Datum:Temp:Abs-Feuchte:Windchill:Wind:
Aussen-T/F 1 30-09-2016 00:00:00 16.9 C 12.08 g/m*3 16.9 C 0 km/h
2 30-09-2016 00:05:00 16.9 C 12.08 g/m*3 16.9 C 0 km/h
3 30-09-2016 00:10:00 16.9 C 12.08 g/m*3 16.9 C 0 km/h
4 30-09-2016 00:15:00 16.9 C 12.23 g/m*3 16.9 C 1.6 km/h
5 30-09-2016 00:20:00 16.8 C 12.01 g/m*3 16.8 C 0 km/h
6 30-09-2016 00:25:00 16.7 C 11.94 g/m*3 16.7 C 0 km/h
7 30-09-2016 00:30:00 16.6 C 11.87 g/m*3 16.6 C 0 km/h
8 30-09-2016 00:35:00 16.4 C 11.86 g/m*3 16.4 C 0 km/h
9 30-09-2016 00:40:00 16.3 C 11.79 g/m*3 16.3 C 0 km/h
10 30-09-2016 00:45:00 16.2 C 11.86 g/m*3 16.2 C 4.8 km/h
11 30-09-2016 00:50:00 16.2 C 11.86 g/m*3 16.2 C 0 km/h
12 30-09-2016 00:55:00 16.1 C 11.79 g/m*3 16.1 C 0 km/h
13 30-09-2016 01:00:00 16.1 C 11.79 g/m*3 16.1 C 0 km/h
14 30-09-2016 01:05:00 16.1 C 11.79 g/m*3 16.1 C 0 km/h
15 30-09-2016 01:10:00 16.1 C 11.93 g/m*3 16.1 C 1.6 km/h
16 30-09-2016 01:15:00 16.1 C 11.93 g/m*3 16.1 C 1.6 km/h
17 30-09-2016 01:20:00 16.1 C 11.93 g/m*3 16.1 C 0 km/h
18 30-09-2016 01:25:00 16.1 C 11.93 g/m*3 16.1 C 0 km/h
19 30-09-2016 01:30:00 16.1 C 11.93 g/m*3 16.1 C 0 km/h
20 30-09-2016 01:35:00 16.1 C 11.93 g/m*3 16.1 C 0 km/h
21 30-09-2016 01:40:00 16 C 11.85 g/m*3 16 C 0 km/h
22 30-09-2016 01:45:00 15.9 C 11.78 g/m*3 15.9 C 0 km/h
23 30-09-2016 01:50:00 15.9 C 11.78 g/m*3 15.9 C 0 km/h
24 30-09-2016 01:55:00 15.8 C 11.71 g/m*3 15.8 C 0 km/h
25 30-09-2016 02:00:00 15.7 C 11.77 g/m*3 15.7 C 0 km/h
Sensor: Nr:Datum:Temp:Abs-Feuchte:Windchill:Wind:
Aussen-T/F 26 30-09-2016 02:05:00 15.7 C 11.77 g/m*3 15.7 C 0 km/h
27 30-09-2016 02:10:00 15.7 C 11.91 g/m*3 15.7 C 0 km/h
28 30-09-2016 02:15:00 15.7 C 11.91 g/m*3 15.7 C 0 km/h
29 30-09-2016 02:20:00 15.7 C 11.91 g/m*3 15.7 C 0 km/h
30 30-09-2016 02:25:00 15.7 C 11.91 g/m*3 15.7 C 0 km/h
31 30-09-2016 02:30:00 15.7 C 11.91 g/m*3 15.7 C 0 km/h
32 30-09-2016 02:35:00 15.7 C 11.91 g/m*3 15.7 C 3.2 km/h
33 30-09-2016 02:40:00 15.8 C 11.98 g/m*3 15.8 C 4.8 km/h
34 30-09-2016 02:45:00 15.9 C 11.78 g/m*3 15.9 C 11.3 km/h
35 30-09-2016 02:50:00 16.1 C 11.79 g/m*3 16.1 C 8.1 km/h
36 30-09-2016 02:55:00 16.1 C 11.65 g/m*3 16.1 C 4.8 km/h
37 30-09-2016 03:00:00 16.2 C 11.58 g/m*3 16.2 C 3.2 km/h
38 30-09-2016 03:05:00 16.2 C 11.58 g/m*3 16.2 C 3.2 km/h
39 30-09-2016 03:10:00 16.2 C 11.58 g/m*3 16.2 C 0 km/h
40 30-09-2016 03:15:00 16.1 C 11.51 g/m*3 16.1 C 0 km/h
41 30-09-2016 03:20:00 16.1 C 11.51 g/m*3 16.1 C 0 km/h
42 30-09-2016 03:25:00 16 C 11.31 g/m*3 16 C 3.2 km/h
43 30-09-2016 03:30:00 15.9 C 11.38 g/m*3 15.9 C 1.6 km/h
44 30-09-2016 03:35:00 15.9 C 11.24 g/m*3 15.9 C 0 km/h
45 30-09-2016 03:40:00 15.9 C 11.38 g/m*3 15.9 C 0 km/h
46 30-09-2016 03:45:00 15.8 C 11.31 g/m*3 15.8 C 0 km/h
47 30-09-2016 03:50:00 15.8 C 11.31 g/m*3 15.8 C 0 km/h
48 30-09-2016 03:55:00 15.8 C 11.44 g/m*3 15.8 C 0 km/h
49 30-09-2016 04:00:00 15.8 C 11.31 g/m*3 15.8 C 0 km/h
50 30-09-2016 04:05:00 15.7 C 11.24 g/m*3 15.7 C 0 km/h
Sensor: Nr:Datum:Temp:Abs-Feuchte:Windchill:Wind:
Aussen-T/F 51 30-09-2016 04:10:00 15.7 C 11.37 g/m*3 15.7 C 0 km/h
52 30-09-2016 04:15:00 15.6 C 11.17 g/m*3 15.6 C 0 km/h
53 30-09-2016 04:20:00 15.6 C 11.3 g/m*3 15.6 C 0 km/h
54 30-09-2016 04:25:00 15.5 C 11.1 g/m*3 15.5 C 0 km/h
55 30-09-2016 04:30:00 15.4 C 11.04 g/m*3 15.4 C 0 km/h
56 30-09-2016 04:35:00 15.4 C 11.17 g/m*3 15.4 C 0 km/h
57 30-09-2016 04:40:00 15.4 C 11.17 g/m*3 15.4 C 0 km/h
58 30-09-2016 04:45:00 15.3 C 11.1 g/m*3 15.3 C 0 km/h
59 30-09-2016 04:50:00 15.3 C 11.23 g/m*3 15.3 C 0 km/h
60 30-09-2016 04:55:00 15.3 C 11.23 g/m*3 15.3 C 0 km/h
61 30-09-2016 05:00:00 15.2 C 11.03 g/m*3 15.2 C 0 km/h
62 30-09-2016 05:05:00 15.2 C 11.03 g/m*3 15.2 C 0 km/h
63 30-09-2016 05:10:00 15.2 C 11.16 g/m*3 15.2 C 0 km/h
64 30-09-2016 05:15:00 15.2 C 11.16 g/m*3 15.2 C 0 km/h
65 30-09-2016 05:20:00 15.1 C 11.09 g/m*3 15.1 C 0 km/h
66 30-09-2016 05:25:00 15.1 C 11.09 g/m*3 15.1 C 0 km/h
67 30-09-2016 05:30:00 15.1 C 11.09 g/m*3 15.1 C 0 km/h
68 30-09-2016 05:35:00 15.1 C 11.09 g/m*3 15.1 C 0 km/h
69 30-09-2016 05:40:00 15.1 C 11.09 g/m*3 15.1 C 0 km/h
70 30-09-2016 05:45:00 15.1 C 11.22 g/m*3 15.1 C 0 km/h
71 30-09-2016 05:50:00 15.1 C 11.22 g/m*3 15.1 C 0 km/h
72 30-09-2016 05:55:00 15.1 C 11.22 g/m*3 15.1 C 0 km/h
73 30-09-2016 06:00:00 15.1 C 11.22 g/m*3 15.1 C 0 km/h
74 30-09-2016 06:05:00 15 C 11.16 g/m*3 15 C 0 km/h
75 30-09-2016 06:10:00 15 C 11.16 g/m*3 15 C 0 km/h
Sensor: Nr:Datum:Temp:Abs-Feuchte:Windchill:Wind:
Aussen-T/F 76 30-09-2016 06:15:00 15 C 11.16 g/m*3 15 C 0 km/h
77 30-09-2016 06:20:00 15 C 11.16 g/m*3 15 C 0 km/h
78 30-09-2016 06:25:00 15 C 11.16 g/m*3 15 C 0 km/h
79 30-09-2016 06:30:00 15 C 11.16 g/m*3 15 C 0 km/h
80 30-09-2016 06:35:00 15 C 11.28 g/m*3 15 C 0 km/h
81 30-09-2016 06:40:00 15 C 11.28 g/m*3 15 C 0 km/h
82 30-09-2016 06:45:00 15.1 C 11.22 g/m*3 15.1 C 0 km/h
83 30-09-2016 06:50:00 15.1 C 11.22 g/m*3 15.1 C 0 km/h
84 30-09-2016 06:55:00 15.1 C 11.22 g/m*3 15.1 C 0 km/h
85 30-09-2016 07:00:00 15.1 C 11.22 g/m*3 15.1 C 0 km/h
86 30-09-2016 07:05:00 15.1 C 11.22 g/m*3 15.1 C 0 km/h
87 30-09-2016 07:10:00 15.1 C 11.22 g/m*3 15.1 C 1.6 km/h
88 30-09-2016 07:15:00 15.1 C 11.09 g/m*3 15.1 C 0 km/h
89 30-09-2016 07:20:00 15.1 C 11.09 g/m*3 15.1 C 0 km/h
90 30-09-2016 07:25:00 15.1 C 11.09 g/m*3 15.1 C 0 km/h
91 30-09-2016 07:30:00 15 C 10.77 g/m*3 15 C 1.6 km/h
92 30-09-2016 07:35:00 15 C 10.64 g/m*3 15 C 1.6 km/h
93 30-09-2016 07:40:00 15.1 C 10.84 g/m*3 15.1 C 0 km/h
94 30-09-2016 07:45:00 15.1 C 10.84 g/m*3 15.1 C 0 km/h
95 30-09-2016 07:50:00 15.2 C 10.9 g/m*3 15.2 C 0 km/h
96 30-09-2016 07:55:00 15.2 C 11.03 g/m*3 15.2 C 0 km/h
97 30-09-2016 08:00:00 15.2 C 11.03 g/m*3 15.2 C 0 km/h
98 30-09-2016 08:05:00 15.2 C 11.16 g/m*3 15.2 C 0 km/h
99 30-09-2016 08:10:00 15.2 C 11.03 g/m*3 15.2 C 1.6 km/h
100 30-09-2016 08:15:00 15.2 C 11.03 g/m*3 15.2 C 0 km/h
Sensor: Nr:Datum:Temp:Abs-Feuchte:Windchill:Wind:
Aussen-T/F 101 30-09-2016 08:20:00 15.2 C 11.03 g/m*3 15.2 C 0 km/h
102 30-09-2016 08:25:00 15.2 C 11.16 g/m*3 15.2 C 0 km/h
103 30-09-2016 08:30:00 15.2 C 11.16 g/m*3 15.2 C 0 km/h
104 30-09-2016 08:35:00 15.2 C 11.16 g/m*3 15.2 C 0 km/h
105 30-09-2016 08:40:00 15.2 C 11.29 g/m*3 15.2 C 0 km/h
106 30-09-2016 08:45:00 15.3 C 11.23 g/m*3 15.3 C 0 km/h
107 30-09-2016 08:50:00 15.2 C 11.16 g/m*3 15.2 C 0 km/h
108 30-09-2016 08:55:00 15.2 C 11.03 g/m*3 15.2 C 3.2 km/h
109 30-09-2016 09:00:00 15.2 C 11.03 g/m*3 15.2 C 0 km/h
110 30-09-2016 09:05:00 15.3 C 11.1 g/m*3 15.3 C 0 km/h
111 30-09-2016 09:10:00 15.3 C 11.23 g/m*3 15.3 C 0 km/h
112 30-09-2016 09:15:00 15.4 C 11.04 g/m*3 15.4 C 1.6 km/h
113 30-09-2016 09:20:00 15.5 C 11.1 g/m*3 15.5 C 3.2 km/h
114 30-09-2016 09:25:00 15.6 C 11.17 g/m*3 15.6 C 1.6 km/h
115 30-09-2016 09:30:00 15.7 C 11.11 g/m*3 15.7 C 4.8 km/h
116 30-09-2016 09:35:00 15.7 C 11.11 g/m*3 15.7 C 3.2 km/h
117 30-09-2016 09:40:00 15.8 C 11.17 g/m*3 15.8 C 3.2 km/h
118 30-09-2016 09:45:00 15.8 C 11.17 g/m*3 15.8 C 0 km/h
119 30-09-2016 09:50:00 15.8 C 11.17 g/m*3 15.8 C 0 km/h
120 30-09-2016 09:55:00 15.8 C 11.17 g/m*3 15.8 C 0 km/h
121 30-09-2016 10:00:00 15.8 C 11.04 g/m*3 15.8 C 4.8 km/h
122 30-09-2016 10:05:00 15.8 C 11.17 g/m*3 15.8 C 0 km/h
123 30-09-2016 10:10:00 15.7 C 11.11 g/m*3 15.7 C 1.6 km/h
124 30-09-2016 10:15:00 15.7 C 11.11 g/m*3 15.7 C 0 km/h
125 30-09-2016 10:20:00 15.7 C 11.11 g/m*3 15.7 C 0 km/h
Sensor: Nr:Datum:Temp:Abs-Feuchte:Windchill:Wind:
Aussen-T/F 126 30-09-2016 10:25:00 15.6 C 11.17 g/m*3 15.6 C 0 km/h
127 30-09-2016 10:30:00 15.6 C 11.17 g/m*3 15.6 C 0 km/h
128 30-09-2016 10:35:00 15.6 C 11.3 g/m*3 15.6 C 3.2 km/h
129 30-09-2016 10:40:00 15.6 C 11.17 g/m*3 15.6 C 3.2 km/h
130 30-09-2016 10:45:00 15.6 C 11.17 g/m*3 15.6 C 0 km/h
131 30-09-2016 10:50:00 15.6 C 11.3 g/m*3 15.6 C 0 km/h
132 30-09-2016 10:55:00 15.6 C 11.3 g/m*3 15.6 C 0 km/h
133 30-09-2016 11:00:00 15.5 C 11.24 g/m*3 15.5 C 1.6 km/h
134 30-09-2016 11:05:00 15.6 C 11.57 g/m*3 15.6 C 0 km/h
135 30-09-2016 11:10:00 15.6 C 11.7 g/m*3 15.6 C 0 km/h
136 30-09-2016 11:15:00 15.6 C 11.7 g/m*3 15.6 C 0 km/h
137 30-09-2016 11:20:00 15.5 C 11.63 g/m*3 15.5 C 0 km/h
138 30-09-2016 11:25:00 15.4 C 11.69 g/m*3 15.4 C 0 km/h
139 30-09-2016 11:30:00 15.4 C 11.69 g/m*3 15.4 C 0 km/h
140 30-09-2016 11:35:00 15.3 C 11.75 g/m*3 15.3 C 0 km/h
141 30-09-2016 11:40:00 15.2 C 11.68 g/m*3 15.2 C 1.6 km/h
142 30-09-2016 11:45:00 15.1 C 11.74 g/m*3 15.1 C 0 km/h
143 30-09-2016 11:50:00 14.9 C 11.6 g/m*3 14.9 C 0 km/h
144 30-09-2016 11:55:00 14.8 C 11.53 g/m*3 14.8 C 0 km/h
145 30-09-2016 12:00:00 14.8 C 11.53 g/m*3 14.8 C 1.6 km/h
146 30-09-2016 12:05:00 14.7 C 11.58 g/m*3 14.7 C 0 km/h
147 30-09-2016 12:10:00 14.7 C 11.58 g/m*3 14.7 C 0 km/h
148 30-09-2016 12:15:00 14.7 C 11.71 g/m*3 14.7 C 0 km/h
149 30-09-2016 12:20:00 14.7 C 11.71 g/m*3 14.7 C 0 km/h
150 30-09-2016 12:25:00 14.7 C 11.71 g/m*3 14.7 C 0 km/h
Sensor: Nr:Datum:Temp:Abs-Feuchte:Windchill:Wind:
Aussen-T/F 151 30-09-2016 12:30:00 14.8 C 11.78 g/m*3 14.8 C 0 km/h
152 30-09-2016 12:35:00 14.9 C 11.98 g/m*3 14.9 C 0 km/h
153 30-09-2016 12:40:00 15.1 C 12.13 g/m*3 15.1 C 1.6 km/h
154 30-09-2016 12:45:00 15.2 C 12.2 g/m*3 15.2 C 0 km/h
155 30-09-2016 12:50:00 15.2 C 12.2 g/m*3 15.2 C 3.2 km/h
156 30-09-2016 12:55:00 15.2 C 12.07 g/m*3 15.2 C 3.2 km/h
157 30-09-2016 13:00:00 15.1 C 12 g/m*3 15.1 C 6.4 km/h
158 30-09-2016 13:05:00 15 C 11.93 g/m*3 15 C 0 km/h
159 30-09-2016 13:10:00 15 C 11.93 g/m*3 15 C 0 km/h
160 30-09-2016 13:15:00 15.1 C 12 g/m*3 15.1 C 1.6 km/h
161 30-09-2016 13:20:00 15.2 C 12.2 g/m*3 15.2 C 0 km/h
162 30-09-2016 13:25:00 15.2 C 12.2 g/m*3 15.2 C 0 km/h
163 30-09-2016 13:30:00 15.3 C 12.28 g/m*3 15.3 C 3.2 km/h
164 30-09-2016 13:35:00 15.3 C 12.28 g/m*3 15.3 C 1.6 km/h
165 30-09-2016 13:40:00 15.4 C 12.35 g/m*3 15.4 C 1.6 km/h
166 30-09-2016 13:45:00 15.4 C 12.22 g/m*3 15.4 C 8.1 km/h
167 30-09-2016 13:50:00 15.5 C 12.29 g/m*3 15.5 C 6.4 km/h
168 30-09-2016 13:55:00 15.4 C 12.09 g/m*3 15.4 C 8.1 km/h
169 30-09-2016 14:00:00 15.4 C 12.09 g/m*3 15.4 C 1.6 km/h
170 30-09-2016 14:05:00 15.4 C 12.09 g/m*3 15.4 C 3.2 km/h
171 30-09-2016 14:10:00 15.3 C 12.01 g/m*3 15.3 C 8.1 km/h
172 30-09-2016 14:15:00 15.3 C 12.01 g/m*3 15.3 C 6.4 km/h
173 30-09-2016 14:20:00 15.3 C 12.01 g/m*3 15.3 C 4.8 km/h
174 30-09-2016 14:25:00 15.2 C 11.94 g/m*3 15.2 C 6.4 km/h
175 30-09-2016 14:30:00 15.3 C 12.01 g/m*3 15.3 C 1.6 km/h
Sensor: Nr:Datum:Temp:Abs-Feuchte:Windchill:Wind:
Aussen-T/F 176 30-09-2016 14:35:00 15.3 C 12.01 g/m*3 15.3 C 0 km/h
177 30-09-2016 14:40:00 15.3 C 12.14 g/m*3 15.3 C 0 km/h
178 30-09-2016 14:45:00 15.4 C 12.22 g/m*3 15.4 C 0 km/h
179 30-09-2016 14:50:00 15.5 C 12.29 g/m*3 15.5 C 1.6 km/h
180 30-09-2016 14:55:00 15.6 C 12.37 g/m*3 15.6 C 4.8 km/h
181 30-09-2016 15:00:00 15.6 C 12.23 g/m*3 15.6 C 6.4 km/h
182 30-09-2016 15:05:00 15.7 C 12.31 g/m*3 15.7 C 3.2 km/h
183 30-09-2016 15:10:00 15.7 C 12.31 g/m*3 15.7 C 6.4 km/h
184 30-09-2016 15:15:00 15.8 C 12.38 g/m*3 15.8 C 0 km/h
185 30-09-2016 15:20:00 15.8 C 12.38 g/m*3 15.8 C 4.8 km/h
186 30-09-2016 15:25:00 15.7 C 12.18 g/m*3 15.7 C 3.2 km/h
187 30-09-2016 15:30:00 15.7 C 12.18 g/m*3 15.7 C 4.8 km/h
188 30-09-2016 15:35:00 15.6 C 12.1 g/m*3 15.6 C 3.2 km/h
189 30-09-2016 15:40:00 15.6 C 12.1 g/m*3 15.6 C 6.4 km/h
190 30-09-2016 15:45:00 15.6 C 12.1 g/m*3 15.6 C 0 km/h
191 30-09-2016 15:50:00 15.7 C 12.31 g/m*3 15.7 C 3.2 km/h
192 30-09-2016 15:55:00 15.6 C 11.97 g/m*3 15.6 C 4.8 km/h
193 30-09-2016 16:00:00 15.6 C 11.97 g/m*3 15.6 C 4.8 km/h
194 30-09-2016 16:05:00 15.7 C 12.04 g/m*3 15.7 C 6.4 km/h
195 30-09-2016 16:10:00 15.7 C 12.04 g/m*3 15.7 C 6.4 km/h
196 30-09-2016 16:15:00 15.8 C 12.11 g/m*3 15.8 C 6.4 km/h
197 30-09-2016 16:20:00 15.8 C 12.11 g/m*3 15.8 C 6.4 km/h
198 30-09-2016 16:25:00 15.8 C 12.11 g/m*3 15.8 C 4.8 km/h
199 30-09-2016 16:30:00 15.8 C 11.98 g/m*3 15.8 C 8.1 km/h
200 30-09-2016 16:35:00 15.8 C 11.98 g/m*3 15.8 C 4.8 km/h
Sensor: Nr:Datum:Temp:Abs-Feuchte:Windchill:Wind:
Aussen-T/F 201 30-09-2016 16:40:00 15.9 C 12.19 g/m*3 15.9 C 4.8 km/h
202 30-09-2016 16:45:00 16 C 12.26 g/m*3 16 C 3.2 km/h
203 30-09-2016 16:50:00 16.1 C 12.34 g/m*3 16.1 C 1.6 km/h
204 30-09-2016 16:55:00 16.1 C 12.2 g/m*3 16.1 C 6.4 km/h
205 30-09-2016 17:00:00 16.1 C 12.2 g/m*3 16.1 C 3.2 km/h
206 30-09-2016 17:05:00 16.1 C 12.06 g/m*3 16.1 C 6.4 km/h
207 30-09-2016 17:10:00 16.2 C 12.27 g/m*3 16.2 C 3.2 km/h
208 30-09-2016 17:15:00 16.3 C 12.35 g/m*3 16.3 C 4.8 km/h
209 30-09-2016 17:20:00 16.3 C 12.21 g/m*3 16.3 C 8.1 km/h
210 30-09-2016 17:25:00 16.4 C 12.28 g/m*3 16.4 C 4.8 km/h
211 30-09-2016 17:30:00 16.4 C 12.28 g/m*3 16.4 C 6.4 km/h
212 30-09-2016 17:35:00 16.4 C 12.28 g/m*3 16.4 C 3.2 km/h
213 30-09-2016 17:40:00 16.4 C 12.28 g/m*3 16.4 C 1.6 km/h
214 30-09-2016 17:45:00 16.3 C 12.35 g/m*3 16.3 C 0 km/h
215 30-09-2016 17:50:00 16.2 C 12.14 g/m*3 16.2 C 0 km/h
216 30-09-2016 17:55:00 16.1 C 12.2 g/m*3 16.1 C 0 km/h
217 30-09-2016 18:00:00 15.9 C 12.05 g/m*3 15.9 C 0 km/h
218 30-09-2016 18:05:00 15.8 C 11.98 g/m*3 15.8 C 0 km/h
219 30-09-2016 18:10:00 15.7 C 12.04 g/m*3 15.7 C 0 km/h
220 30-09-2016 18:15:00 15.7 C 12.04 g/m*3 15.7 C 0 km/h
221 30-09-2016 18:20:00 15.6 C 12.1 g/m*3 15.6 C 0 km/h
222 30-09-2016 18:25:00 15.4 C 11.82 g/m*3 15.4 C 0 km/h
223 30-09-2016 18:30:00 15.4 C 11.96 g/m*3 15.4 C 0 km/h
224 30-09-2016 18:35:00 15.3 C 11.88 g/m*3 15.3 C 0 km/h
225 30-09-2016 18:40:00 15.2 C 11.81 g/m*3 15.2 C 0 km/h
Sensor: Nr:Datum:Temp:Abs-Feuchte:Windchill:Wind:
Aussen-T/F 226 30-09-2016 18:45:00 15.2 C 11.81 g/m*3 15.2 C 0 km/h
227 30-09-2016 18:50:00 15.1 C 11.74 g/m*3 15.1 C 0 km/h
228 30-09-2016 18:55:00 15 C 11.8 g/m*3 15 C 0 km/h
229 30-09-2016 19:00:00 14.9 C 11.73 g/m*3 14.9 C 0 km/h
230 30-09-2016 19:05:00 14.8 C 11.65 g/m*3 14.8 C 0 km/h
231 30-09-2016 19:10:00 14.7 C 11.58 g/m*3 14.7 C 0 km/h
232 30-09-2016 19:15:00 14.5 C 11.44 g/m*3 14.5 C 0 km/h
233 30-09-2016 19:20:00 14.4 C 11.37 g/m*3 14.4 C 0 km/h
234 30-09-2016 19:25:00 14.3 C 11.3 g/m*3 14.3 C 0 km/h
235 30-09-2016 19:30:00 14.2 C 11.23 g/m*3 14.2 C 0 km/h
236 30-09-2016 19:35:00 14.1 C 11.17 g/m*3 14.1 C 0 km/h
237 30-09-2016 19:40:00 14.1 C 11.29 g/m*3 14.1 C 1.6 km/h
238 30-09-2016 19:45:00 14.1 C 11.29 g/m*3 14.1 C 1.6 km/h
239 30-09-2016 19:50:00 14 C 11.22 g/m*3 14 C 0 km/h
240 30-09-2016 19:55:00 14 C 11.22 g/m*3 14 C 0 km/h
241 30-09-2016 20:00:00 14 C 11.22 g/m*3 14 C 1.6 km/h
242 30-09-2016 20:05:00 14 C 11.22 g/m*3 14 C 0 km/h
243 30-09-2016 20:10:00 13.9 C 11.15 g/m*3 13.9 C 0 km/h
244 30-09-2016 20:15:00 13.9 C 11.15 g/m*3 13.9 C 0 km/h
245 30-09-2016 20:20:00 13.9 C 11.15 g/m*3 13.9 C 0 km/h
246 30-09-2016 20:25:00 13.9 C 11.15 g/m*3 13.9 C 0 km/h
247 30-09-2016 20:30:00 13.8 C 11.08 g/m*3 13.8 C 0 km/h
248 30-09-2016 20:35:00 13.8 C 11.08 g/m*3 13.8 C 0 km/h
249 30-09-2016 20:40:00 13.8 C 11.2 g/m*3 13.8 C 0 km/h
250 30-09-2016 20:45:00 13.7 C 11.13 g/m*3 13.7 C 0 km/h
Sensor: Nr:Datum:Temp:Abs-Feuchte:Windchill:Wind:
Aussen-T/F 251 30-09-2016 20:50:00 13.6 C 11.06 g/m*3 13.6 C 0 km/h
252 30-09-2016 20:55:00 13.6 C 10.95 g/m*3 13.6 C 0 km/h
253 30-09-2016 21:00:00 13.5 C 10.88 g/m*3 13.5 C 0 km/h
254 30-09-2016 21:05:00 13.4 C 10.93 g/m*3 13.4 C 0 km/h
255 30-09-2016 21:10:00 13.4 C 10.93 g/m*3 13.4 C 0 km/h
256 30-09-2016 21:15:00 13.4 C 10.93 g/m*3 13.4 C 0 km/h
257 30-09-2016 21:20:00 13.3 C 10.86 g/m*3 13.3 C 0 km/h
258 30-09-2016 21:25:00 13.3 C 10.86 g/m*3 13.3 C 0 km/h
259 30-09-2016 21:30:00 13.3 C 10.86 g/m*3 13.3 C 0 km/h
260 30-09-2016 21:35:00 13.2 C 10.79 g/m*3 13.2 C 0 km/h
261 30-09-2016 21:40:00 13.1 C 10.73 g/m*3 13.1 C 0 km/h
262 30-09-2016 21:45:00 13.1 C 10.73 g/m*3 13.1 C 0 km/h
263 30-09-2016 21:50:00 13 C 10.66 g/m*3 13 C 0 km/h
264 30-09-2016 21:55:00 12.9 C 10.59 g/m*3 12.9 C 0 km/h
265 30-09-2016 22:00:00 13 C 10.66 g/m*3 13 C 0 km/h
266 30-09-2016 22:05:00 13 C 10.66 g/m*3 13 C 0 km/h
267 30-09-2016 22:10:00 13.1 C 10.84 g/m*3 13.1 C 0 km/h
268 30-09-2016 22:15:00 13.1 C 10.84 g/m*3 13.1 C 0 km/h
269 30-09-2016 22:20:00 13.1 C 10.84 g/m*3 13.1 C 1.6 km/h
270 30-09-2016 22:25:00 13.1 C 10.84 g/m*3 13.1 C 0 km/h
271 30-09-2016 22:30:00 13.1 C 10.84 g/m*3 13.1 C 0 km/h
272 30-09-2016 22:35:00 13.1 C 10.84 g/m*3 13.1 C 0 km/h
273 30-09-2016 22:40:00 13 C 10.77 g/m*3 13 C 0 km/h
274 30-09-2016 22:45:00 13 C 10.77 g/m*3 13 C 0 km/h
275 30-09-2016 22:50:00 12.9 C 10.71 g/m*3 12.9 C 0 km/h
Sensor: Nr:Datum:Temp:Abs-Feuchte:Windchill:Wind:
Aussen-T/F 276 30-09-2016 22:55:00 12.9 C 10.71 g/m*3 12.9 C 0 km/h
277 30-09-2016 23:00:00 12.9 C 10.71 g/m*3 12.9 C 0 km/h
278 30-09-2016 23:05:00 13 C 10.77 g/m*3 13 C 0 km/h
279 30-09-2016 23:10:00 13 C 10.77 g/m*3 13 C 0 km/h
280 30-09-2016 23:15:00 13 C 10.77 g/m*3 13 C 0 km/h
281 30-09-2016 23:20:00 13 C 10.77 g/m*3 13 C 0 km/h
282 30-09-2016 23:25:00 13 C 10.77 g/m*3 13 C 0 km/h
283 30-09-2016 23:30:00 13 C 10.77 g/m*3 13 C 0 km/h
284 30-09-2016 23:35:00 13 C 10.77 g/m*3 13 C 0 km/h
285 30-09-2016 23:40:00 13 C 10.77 g/m*3 13 C 0 km/h
286 30-09-2016 23:45:00 13 C 10.77 g/m*3 13 C 0 km/h
287 30-09-2016 23:50:00 13 C 10.77 g/m*3 13 C 0 km/h
288 30-09-2016 23:55:00 13 C 10.77 g/m*3 13 C 0 km/h

Legende:
   Min
   Max


Maximal/Minimal-Werte vom 30.09.2016 - 30.09.2016

Sensor Min Max Avg
Temp
(Aussen-T/F)
12.9 °C
30-09-2016  21:55:00
16.9 °C
30-09-2016  00:00:00
15.13 °C
Abs-Feuchte
(Aussen-T/F)
10.59 g/m*3
30-09-2016  21:55:00
12.38 g/m*3
30-09-2016  15:15:00
11.46 g/m*3
Windchill
(Aussen-T/F)
12.9 C
30-09-2016  21:55:00
16.9 C
30-09-2016  00:00:00
15.08 C

Die Daten stammen von einer Davis Vantage Pro 2 Wetter-Station und werden unter Linux mit der Software wview2wettercgi und aufbereitet. Alle Angaben erfolgen ohne Gewähr für ihre Vollständigkeit oder Richtigkeit.
Kontakt: Rainer Krienke krienke@uni-koblenz.de . Meine Webseiten an der Uni Koblenz oder privat.
Version: $Revision: 0.78 $